Time;durP1;ratioP1;P1;durP2;ratioP2;P2;SDS_P1;SDS_P2;PMS_P1;PMS_P2;Temp;Humidity;BMP_temperature;BMP_pressure;BME280_temperature;BME280_humidity;BME280_pressure;Samples;Min_cycle;Max_cycle;Signal;HPM_P1;HPM_P2
2021/06/16 00:00:08;;;;;;;18.38;9.73;;;;;;;19.46;69.60;99229.44;5093746;28;20067;-66
2021/06/16 00:02:34;;;;;;;12.23;9.90;;;;;;;19.41;69.57;99226.50;5106357;28;20043;-66
2021/06/16 00:05:00;;;;;;;18.35;9.88;;;;;;;19.35;69.52;99230.81;5101128;28;20046;-63
2021/06/16 00:07:25;;;;;;;14.63;9.60;;;;;;;19.33;69.42;99227.47;5099602;28;20579;-65
2021/06/16 00:09:51;;;;;;;13.75;8.80;;;;;;;19.32;69.14;99236.66;5108434;28;20079;-66
2021/06/16 00:12:16;;;;;;;11.18;9.13;;;;;;;19.24;68.88;99225.09;5095218;28;20043;-67
2021/06/16 00:14:42;;;;;;;11.73;8.38;;;;;;;19.13;69.02;99224.56;5105270;28;20047;-67
2021/06/16 00:17:08;;;;;;;10.32;9.32;;;;;;;18.96;69.35;99196.00;5102398;28;20035;-67
2021/06/16 00:19:34;;;;;;;17.42;8.85;;;;;;;19.17;68.74;99227.75;5097858;28;20047;-67
2021/06/16 00:22:00;;;;;;;9.30;8.10;;;;;;;19.12;68.11;99219.34;5108270;28;20031;-66
2021/06/16 00:24:26;;;;;;;10.30;7.95;;;;;;;19.06;68.35;99221.81;5096357;28;20036;-67
2021/06/16 00:26:58;;;;;;;9.10;7.90;;;;;;;19.10;68.14;99229.56;5103442;28;20075;-63
2021/06/16 00:29:24;;;;;;;8.80;7.30;;;;;;;19.07;67.96;99231.63;5104797;28;20504;-67
2021/06/16 00:31:49;;;;;;;10.40;7.43;;;;;;;19.05;67.72;99238.25;5095478;28;20036;-65
2021/06/16 00:34:15;;;;;;;9.77;7.20;;;;;;;18.94;67.76;99237.72;5108107;28;20028;-65
2021/06/16 00:36:42;;;;;;;7.70;6.90;;;;;;;18.99;67.74;99244.47;5098945;28;20023;-64
2021/06/16 00:39:08;;;;;;;8.30;7.28;;;;;;;18.97;67.88;99258.19;5100750;28;20063;-63
2021/06/16 00:41:34;;;;;;;9.05;7.45;;;;;;;18.63;67.79;99203.59;5095330;28;20035;-67
2021/06/16 00:44:00;;;;;;;9.30;7.63;;;;;;;18.37;67.28;99158.06;5108101;28;20074;-66
2021/06/16 00:46:25;;;;;;;10.43;7.60;;;;;;;18.90;66.97;99249.16;5096067;28;20055;-67
2021/06/16 00:48:51;;;;;;;8.35;7.40;;;;;;;18.84;66.79;99236.38;5103264;28;20035;-67
2021/06/16 00:51:17;;;;;;;9.80;7.45;;;;;;;18.79;66.96;99239.66;5102398;28;20469;-67
2021/06/16 00:53:42;;;;;;;8.80;7.13;;;;;;;18.68;67.31;99230.13;5094556;28;20511;-67
2021/06/16 00:56:08;;;;;;;8.02;6.97;;;;;;;18.80;67.18;99252.16;5108113;28;20499;-67
2021/06/16 00:58:33;;;;;;;8.70;6.75;;;;;;;18.78;66.76;99243.38;5096207;28;20040;-67
2021/06/16 01:01:23;;;;;;;7.40;6.80;;;;;;;18.84;67.20;99241.78;5101842;28;20452;-63
2021/06/16 01:04:05;;;;;;;9.27;7.63;;;;;;;18.80;66.96;99252.16;5105995;28;20039;-66
2021/06/16 01:06:59;;;;;;;9.02;7.00;;;;;;;18.78;66.96;99246.09;5096221;28;20111;-65
2021/06/16 01:09:34;;;;;;;7.63;6.82;;;;;;;18.65;66.94;99234.06;5106844;28;20069;-65
2021/06/16 01:12:09;;;;;;;9.40;7.55;;;;;;;18.74;67.15;99256.47;5093653;28;20052;-64
2021/06/16 01:14:43;;;;;;;10.13;7.55;;;;;;;18.76;67.18;99250.88;5105082;28;20418;-65
2021/06/16 01:17:10;;;;;;;7.65;6.95;;;;;;;18.71;67.11;99259.56;5101288;28;20409;-64
2021/06/16 01:19:51;;;;;;;9.60;6.90;;;;;;;18.70;67.03;99257.06;5096460;28;20093;-66
2021/06/16 01:22:29;;;;;;;8.02;7.22;;;;;;;18.73;67.31;99254.81;5107216;28;20028;-66
2021/06/16 01:25:01;;;;;;;8.23;7.43;;;;;;;18.66;67.49;99262.03;5098530;28;20035;-65
2021/06/16 01:27:27;;;;;;;8.95;7.63;;;;;;;18.60;67.21;99258.19;5097789;28;20070;-66
2021/06/16 01:29:56;;;;;;;8.25;7.40;;;;;;;18.62;67.42;99266.97;5107006;28;20058;-61
2021/06/16 01:32:23;;;;;;;10.77;7.53;;;;;;;18.62;67.58;99271.59;5094304;28;20153;-63
2021/06/16 01:34:48;;;;;;;9.98;7.50;;;;;;;18.61;67.75;99265.31;5103209;28;20031;-66
2021/06/16 01:37:15;;;;;;;9.70;7.75;;;;;;;18.52;67.62;99247.47;5100732;28;20031;-65
2021/06/16 01:39:43;;;;;;;8.02;7.22;;;;;;;18.49;67.83;99243.25;5095318;28;20046;-62
2021/06/16 01:42:19;;;;;;;9.02;7.18;;;;;;;18.61;68.02;99248.22;5107424;28;20087;-65
2021/06/16 01:44:45;;;;;;;;;;;;;;;18.82;67.52;99266.38;5097666;28;20088;-66
2021/06/16 01:47:12;;;;;;;8.23;7.15;;;;;;;18.57;67.35;99255.06;5099111;28;19919;-64
2021/06/16 01:49:39;;;;;;;9.77;7.53;;;;;;;18.69;67.34;99267.06;5104303;28;20030;-66
2021/06/16 01:52:05;;;;;;;8.60;6.90;;;;;;;18.70;67.42;99262.50;5093762;28;20036;-65
2021/06/16 01:54:32;;;;;;;8.63;7.05;;;;;;;18.65;67.58;99266.59;5105236;28;20032;-65
2021/06/16 01:56:59;;;;;;;11.73;7.45;;;;;;;18.71;67.38;99272.31;5097631;28;20027;-55
2021/06/16 01:59:26;;;;;;;12.57;7.95;;;;;;;18.74;67.29;99283.59;5097555;28;20057;-65
2021/06/16 02:01:53;;;;;;;10.18;7.50;;;;;;;18.59;67.16;99261.13;5106867;28;20111;-66
2021/06/16 02:04:19;;;;;;;7.45;6.85;;;;;;;18.82;66.88;99287.25;5093502;28;20084;-65
2021/06/16 02:06:48;;;;;;;9.05;7.93;;;;;;;18.86;66.79;99296.69;5102630;28;20036;-65
2021/06/16 02:09:15;;;;;;;9.15;6.05;;;;;;;18.51;66.25;99237.66;5100605;28;20031;-65
2021/06/16 02:11:42;;;;;;;8.25;7.00;;;;;;;18.89;66.12;99290.88;5095114;28;20134;-66
2021/06/16 02:14:13;;;;;;;11.32;6.78;;;;;;;18.96;65.84;99291.78;5108924;28;20051;-65
2021/06/16 02:16:46;;;;;;;6.57;5.82;;;;;;;19.06;65.41;99300.50;5103461;28;20123;-66
2021/06/16 02:19:15;;;;;;;7.60;6.22;;;;;;;19.16;64.70;99291.19;5099500;28;20153;-65
2021/06/16 02:21:42;;;;;;;10.57;6.65;;;;;;;19.36;64.09;99294.94;5094764;28;20058;-65
2021/06/16 02:24:08;;;;;;;7.22;5.82;;;;;;;19.62;63.57;99298.06;5106412;28;20047;-65
2021/06/16 02:26:35;;;;;;;10.02;5.78;;;;;;;19.72;62.65;99282.28;5094840;28;20494;-66
2021/06/16 02:29:00;;;;;;;6.47;5.13;;;;;;;20.01;61.92;99280.41;5099915;28;20094;-64
2021/06/16 02:31:26;;;;;;;6.22;5.60;;;;;;;20.31;61.24;99293.75;5102998;28;20043;-65
2021/06/16 02:33:52;;;;;;;6.28;4.80;;;;;;;20.51;59.87;99284.88;5093077;28;20072;-65
2021/06/16 02:36:21;;;;;;;6.20;4.97;;;;;;;20.83;59.33;99276.25;5105916;28;20028;-65
2021/06/16 02:38:50;;;;;;;6.47;4.70;;;;;;;21.18;57.77;99292.41;5096612;28;20042;-67
2021/06/16 02:41:17;;;;;;;6.63;4.82;;;;;;;21.43;56.73;99272.75;5097611;28;20035;-67
2021/06/16 02:43:43;;;;;;;10.48;5.03;;;;;;;21.68;56.11;99289.38;5104330;28;20036;-63
2021/06/16 02:46:11;;;;;;;4.88;4.38;;;;;;;21.78;55.57;99305.28;5092437;28;20039;-57
2021/06/16 02:48:40;;;;;;;5.00;4.22;;;;;;;21.77;55.18;99303.63;5103127;28;20031;-65
2021/06/16 02:51:06;;;;;;;6.25;4.38;;;;;;;21.57;55.35;99290.81;5099120;28;20035;-63
2021/06/16 02:53:33;;;;;;;4.85;4.43;;;;;;;21.56;55.17;99315.50;5095441;28;20036;-64
2021/06/16 02:56:02;;;;;;;8.05;3.83;;;;;;;21.49;55.21;99310.09;5105890;28;20035;-57
2021/06/16 02:58:30;;;;;;;8.77;4.15;;;;;;;21.47;55.64;99310.28;5094582;28;20462;-66
2021/06/16 03:00:59;;;;;;;4.57;3.90;;;;;;;21.51;55.24;99311.53;5101066;28;20032;-62
2021/06/16 03:03:25;;;;;;;6.85;3.90;;;;;;;21.78;54.61;99305.28;5102136;28;20058;-63
2021/06/16 03:05:53;;;;;;;5.28;3.63;;;;;;;22.32;53.50;99324.28;5092885;28;20058;-65
2021/06/16 03:08:23;;;;;;;10.98;3.80;;;;;;;22.90;51.80;99330.81;5093460;28;20040;-65
2021/06/16 03:10:49;;;;;;;6.97;4.35;;;;;;;23.41;50.91;99333.75;5096746;28;20048;-63
2021/06/16 03:13:16;;;;;;;7.35;3.75;;;;;;;23.91;49.17;99327.44;5097694;28;20056;-65
2021/06/16 03:15:45;;;;;;;4.82;3.35;;;;;;;24.57;47.45;99336.06;5104150;28;20031;-65
2021/06/16 03:18:12;;;;;;;4.75;3.70;;;;;;;25.06;45.95;99327.91;5091544;28;20040;-65
2021/06/16 03:20:39;;;;;;;5.88;3.58;;;;;;;25.34;45.17;99340.16;5101322;28;20020;-63
2021/06/16 03:23:06;;;;;;;5.63;3.45;;;;;;;25.34;44.62;99282.63;5098197;28;20179;-63
2021/06/16 03:25:33;;;;;;;4.25;3.58;;;;;;;25.91;43.92;99333.38;5095347;28;20032;-66
2021/06/16 03:27:58;;;;;;;8.68;3.35;;;;;;;26.22;43.18;99334.13;5105924;28;20411;-54
2021/06/16 03:30:24;;;;;;;6.25;3.35;;;;;;;26.49;42.07;99341.84;5093800;28;20024;-65
2021/06/16 03:32:53;;;;;;;4.63;3.20;;;;;;;26.80;41.55;99342.53;5101130;28;20060;-65
2021/06/16 03:35:19;;;;;;;4.13;3.00;;;;;;;26.86;41.40;99345.41;5103114;28;20035;-65
2021/06/16 03:37:46;;;;;;;4.20;2.67;;;;;;;26.85;40.81;99347.28;5097517;28;20070;-64
2021/06/16 03:40:13;;;;;;;3.65;2.67;;;;;;;26.92;40.26;99358.16;5109509;28;20036;-67
2021/06/16 03:42:39;;;;;;;6.28;3.00;;;;;;;26.88;40.45;99332.25;5098894;28;20042;-66
2021/06/16 03:45:07;;;;;;;6.53;2.90;;;;;;;26.88;39.93;99338.56;5102255;28;20643;-64
2021/06/16 03:47:36;;;;;;;4.20;2.67;;;;;;;26.88;39.66;99332.25;5106983;28;20577;-63
2021/06/16 03:50:03;;;;;;;4.53;3.15;;;;;;;27.19;39.57;99344.69;5096181;28;20139;-67
2021/06/16 03:52:30;;;;;;;6.07;3.20;;;;;;;27.40;38.93;99330.47;5107727;28;20034;-66
2021/06/16 03:54:56;;;;;;;4.20;3.60;;;;;;;27.70;38.67;99330.19;5101330;28;20031;-66
2021/06/16 03:57:22;;;;;;;5.13;2.67;;;;;;;28.28;37.71;99351.19;5100176;28;20096;-62
2021/06/16 04:03:11;;;;;;;6.00;2.85;;;;;;;29.49;35.59;99347.75;5102589;28;20138;-64
2021/06/16 04:05:38;;;;;;;2.85;2.58;;;;;;;30.06;33.81;99357.34;5097969;28;20478;-64
2021/06/16 04:08:05;;;;;;;4.70;2.80;;;;;;;30.48;33.25;99363.09;5105810;28;20527;-66
2021/06/16 04:10:31;;;;;;;7.38;2.70;;;;;;;30.95;32.45;99361.44;5107045;28;20048;-64
2021/06/16 04:12:57;;;;;;;3.67;2.25;;;;;;;31.45;31.68;99309.28;5101241;28;20528;-63
2021/06/16 04:15:23;;;;;;;5.38;2.67;;;;;;;32.14;30.36;99339.47;5099284;28;20028;-64
2021/06/16 04:17:48;;;;;;;5.63;2.70;;;;;;;32.45;29.94;99355.22;5108525;28;20035;-64
2021/06/16 04:20:15;;;;;;;4.80;2.70;;;;;;;32.83;28.80;99363.94;5095492;28;20172;-62
2021/06/16 04:22:42;;;;;;;5.00;2.33;;;;;;;33.46;28.42;99356.16;5105290;28;20036;-66
2021/06/16 04:25:09;;;;;;;7.10;2.83;;;;;;;34.06;27.24;99366.25;5101903;28;20144;-64
2021/06/16 04:27:35;;;;;;;2.53;2.05;;;;;;;34.24;26.60;99325.78;5097015;28;20146;-64
2021/06/16 04:30:01;;;;;;;4.18;2.38;;;;;;;34.69;25.74;99363.66;5107832;28;20139;-66
2021/06/16 04:32:26;;;;;;;3.35;2.55;;;;;;;35.11;25.85;99361.19;5096690;28;20031;-65
2021/06/16 04:34:52;;;;;;;4.43;2.60;;;;;;;35.55;24.95;99378.66;5103684;28;20028;-66
2021/06/16 04:37:18;;;;;;;4.88;2.50;;;;;;;35.70;24.15;99374.81;5102646;28;20564;-65
2021/06/16 04:39:44;;;;;;;3.42;2.30;;;;;;;36.01;23.88;99350.03;5095847;28;20127;-63
2021/06/16 04:42:10;;;;;;;6.38;2.45;;;;;;;36.42;23.38;99376.38;5108147;28;20041;-64
2021/06/16 04:44:35;;;;;;;4.82;2.42;;;;;;;37.10;23.06;99383.38;5096939;28;20402;-63
2021/06/16 04:47:01;;;;;;;4.93;2.20;;;;;;;37.26;22.17;99334.47;5100445;28;20470;-60
2021/06/16 04:49:28;;;;;;;3.75;1.98;;;;;;;37.83;21.71;99383.38;5104678;28;20084;-65
2021/06/16 04:51:54;;;;;;;2.45;1.95;;;;;;;38.01;20.90;99389.94;5095169;28;20451;-65
2021/06/16 04:54:19;;;;;;;4.03;2.10;;;;;;;38.46;20.50;99388.22;5107861;28;20530;-63
2021/06/16 04:56:45;;;;;;;2.28;1.98;;;;;;;38.42;20.33;99384.38;5098195;28;20028;-63
2021/06/16 04:59:10;;;;;;;4.63;1.90;;;;;;;38.68;20.29;99384.53;5100396;28;20146;-63
2021/06/16 05:01:36;;;;;;;2.75;1.85;;;;;;;39.22;19.60;99399.50;5105489;28;20112;-64
2021/06/16 05:04:03;;;;;;;5.70;2.00;;;;;;;39.11;19.26;99399.00;5093911;28;20038;-64
2021/06/16 05:06:28;;;;;;;4.95;2.10;;;;;;;39.51;18.93;99403.66;5106367;28;20380;-61
2021/06/16 05:08:54;;;;;;;4.13;2.13;;;;;;;40.17;18.58;99411.84;5099831;28;20069;-65
2021/06/16 05:11:20;;;;;;;4.07;2.15;;;;;;;40.76;17.94;99406.72;5098420;28;20415;-64
2021/06/16 05:13:45;;;;;;;7.03;2.20;;;;;;;41.03;17.76;99410.19;5106268;28;20043;-69
2021/06/16 05:16:11;;;;;;;3.60;1.85;;;;;;;41.21;17.75;99402.50;5094448;28;20040;-63
2021/06/16 05:18:36;;;;;;;4.90;2.10;;;;;;;41.85;17.05;99394.88;5105013;28;20498;-63
2021/06/16 05:21:02;;;;;;;6.60;2.58;;;;;;;41.88;16.68;99402.63;5098957;28;20107;-61
2021/06/16 05:23:29;;;;;;;6.75;2.15;;;;;;;42.23;16.20;99414.72;5101854;28;20032;-64
2021/06/16 05:25:55;;;;;;;3.88;2.10;;;;;;;42.70;15.94;99408.69;5101314;28;20035;-63
2021/06/16 05:28:21;;;;;;;4.13;2.40;;;;;;;43.33;15.25;99408.66;5098316;28;20032;-63
2021/06/16 05:30:47;;;;;;;3.40;2.08;;;;;;;43.51;15.05;99414.81;5096413;28;20062;-63
2021/06/16 05:33:12;;;;;;;5.45;2.03;;;;;;;44.00;14.59;99419.44;5099196;28;20449;-64
2021/06/16 05:35:38;;;;;;;2.20;2.10;;;;;;;44.47;13.89;99428.34;5097795;28;20027;-62
2021/06/16 05:38:03;;;;;;;2.13;1.83;;;;;;;44.52;13.79;99422.47;5098832;28;20126;-62
2021/06/16 05:40:30;;;;;;;3.03;2.00;;;;;;;43.97;14.13;99429.44;5096936;28;20036;-69
2021/06/16 05:42:56;;;;;;;4.10;2.00;;;;;;;43.90;14.22;99423.63;5098683;28;20085;-62
2021/06/16 05:45:22;;;;;;;3.15;1.85;;;;;;;44.41;13.82;99427.81;5097816;28;20040;-67
2021/06/16 05:47:47;;;;;;;4.28;2.15;;;;;;;44.71;13.29;99435.84;5099038;28;20067;-63
2021/06/16 05:50:13;;;;;;;2.85;2.00;;;;;;;44.64;13.50;99428.03;5098136;28;20034;-64
2021/06/16 05:52:38;;;;;;;4.85;2.30;;;;;;;44.54;13.86;99420.94;5096636;28;20031;-64
2021/06/16 05:55:05;;;;;;;4.47;2.22;;;;;;;45.09;13.17;99442.00;5098563;28;20092;-61
2021/06/16 05:57:31;;;;;;;2.72;2.20;;;;;;;44.64;13.48;99435.66;5103232;28;20031;-61
2021/06/16 05:59:56;;;;;;;4.25;1.77;;;;;;;45.26;13.06;99435.13;5093351;28;20506;-62
2021/06/16 06:02:22;;;;;;;2.97;1.73;;;;;;;45.74;12.39;99429.31;5106198;28;20032;-62
2021/06/16 06:04:47;;;;;;;5.30;2.20;;;;;;;46.03;11.82;99435.53;5097148;28;20118;-61
2021/06/16 06:07:13;;;;;;;1.90;1.80;;;;;;;46.61;11.77;99438.63;5097928;28;20036;-65
2021/06/16 06:09:38;;;;;;;1.75;1.65;;;;;;;46.99;11.58;99437.63;5094091;28;20563;-64
2021/06/16 06:12:04;;;;;;;2.55;2.10;;;;;;;45.43;12.36;99439.56;5106219;28;20055;-64
2021/06/16 06:14:29;;;;;;;3.38;1.95;;;;;;;43.32;14.06;99441.66;5095098;28;20035;-63
2021/06/16 06:16:56;;;;;;;4.28;2.28;;;;;;;41.25;16.07;99434.38;5107555;28;20513;-64
2021/06/16 06:19:21;;;;;;;3.55;1.98;;;;;;;40.39;16.44;99428.78;5102923;28;20036;-65
2021/06/16 06:21:47;;;;;;;4.57;2.08;;;;;;;41.17;15.91;99429.63;5105943;28;20149;-63
2021/06/16 06:24:12;;;;;;;3.70;1.90;;;;;;;42.12;15.00;99448.88;5092274;28;20456;-60
2021/06/16 06:26:38;;;;;;;3.38;2.10;;;;;;;43.29;13.99;99403.72;5102315;28;20472;-62
2021/06/16 06:29:04;;;;;;;3.03;2.20;;;;;;;44.51;12.77;99404.69;5098757;28;20033;-61
2021/06/16 06:31:30;;;;;;;2.47;2.25;;;;;;;45.39;12.07;99444.31;5108145;28;20134;-61
2021/06/16 06:33:56;;;;;;;5.65;2.08;;;;;;;46.06;12.06;99451.75;5092811;28;20040;-62
2021/06/16 06:36:21;;;;;;;6.53;2.10;;;;;;;46.82;11.13;99467.31;5104053;28;20031;-62
2021/06/16 06:38:48;;;;;;;4.68;1.80;;;;;;;47.31;10.45;99469.72;5085752;28;20024;-62
2021/06/16 06:41:14;;;;;;;3.88;1.90;;;;;;;47.46;10.60;99471.53;5100173;28;20042;-62
2021/06/16 06:43:40;;;;;;;3.30;1.90;;;;;;;47.97;9.83;99455.13;5094251;28;20122;-61
2021/06/16 06:46:06;;;;;;;2.13;1.92;;;;;;;49.03;9.50;99474.03;5106120;28;20146;-67
2021/06/16 06:48:31;;;;;;;5.88;2.20;;;;;;;49.68;9.00;99460.19;5095060;28;20146;-60
2021/06/16 06:50:57;;;;;;;3.97;1.80;;;;;;;50.19;8.63;99464.00;5101154;28;20039;-65
2021/06/16 06:53:24;;;;;;;1.95;1.80;;;;;;;49.70;9.08;99463.47;5101533;28;20126;-64
2021/06/16 06:55:50;;;;;;;2.28;1.70;;;;;;;49.32;9.19;99477.06;5099389;28;20118;-63
2021/06/16 06:58:15;;;;;;;1.65;1.52;;;;;;;48.69;9.37;99470.06;5092255;28;20127;-63
2021/06/16 07:00:40;;;;;;;4.10;1.70;;;;;;;46.84;10.48;99473.41;5102729;28;20127;-65
2021/06/16 07:03:06;;;;;;;5.85;1.83;;;;;;;45.68;11.08;99476.03;5099405;28;20164;-62
2021/06/16 07:05:31;;;;;;;3.08;1.70;;;;;;;44.51;11.61;99480.06;5095349;28;20127;-61
2021/06/16 07:07:57;;;;;;;1.95;1.58;;;;;;;43.10;12.50;99483.19;5101745;28;20032;-61
2021/06/16 07:10:23;;;;;;;3.30;1.70;;;;;;;41.88;13.31;99458.03;5106207;28;20059;-62
2021/06/16 07:12:48;;;;;;;4.75;1.90;;;;;;;41.53;13.53;99467.53;5099339;28;20032;-63
2021/06/16 07:15:14;;;;;;;5.57;1.98;;;;;;;41.69;13.52;99490.25;5101437;28;20174;-60
2021/06/16 07:17:40;;;;;;;4.13;1.70;;;;;;;42.55;12.71;99493.78;5108087;28;20027;-61
2021/06/16 07:20:07;;;;;;;5.88;2.10;;;;;;;43.66;11.35;99492.16;5096994;28;20151;-62
2021/06/16 07:22:32;;;;;;;3.50;1.60;;;;;;;44.79;11.08;99487.66;5108038;28;20024;-63
2021/06/16 07:24:58;;;;;;;6.25;2.35;;;;;;;46.06;10.04;99484.91;5101851;28;20042;-62
2021/06/16 07:27:24;;;;;;;3.33;2.00;;;;;;;47.26;9.45;99494.28;5098914;28;20035;-62
2021/06/16 07:29:49;;;;;;;4.57;2.20;;;;;;;48.05;8.81;99502.31;5095406;28;20043;-61
2021/06/16 07:32:18;;;;;;;5.95;2.25;;;;;;;47.98;8.81;99487.97;5092956;28;20084;-62
2021/06/16 07:34:45;;;;;;;4.47;2.00;;;;;;;48.88;8.01;99501.53;5098056;28;20035;-61
2021/06/16 07:37:11;;;;;;;4.78;2.55;;;;;;;50.06;7.66;99494.09;5102117;28;20036;-61
2021/06/16 07:39:36;;;;;;;5.68;2.20;;;;;;;50.29;7.25;99453.88;5107182;28;20413;-62
2021/06/16 07:42:02;;;;;;;2.88;2.30;;;;;;;51.29;6.95;99496.19;5095839;28;20405;-62
2021/06/16 07:44:29;;;;;;;3.55;2.60;;;;;;;52.25;6.17;99504.78;5107884;28;20098;-61
2021/06/16 07:46:54;;;;;;;5.93;2.38;;;;;;;51.78;6.28;99496.50;5101647;28;20035;-61
2021/06/16 07:49:21;;;;;;;3.05;2.30;;;;;;;52.57;5.97;99509.47;5100981;28;20024;-61
2021/06/16 07:51:46;;;;;;;3.65;2.67;;;;;;;53.45;5.99;99510.34;5108237;28;20031;-61
2021/06/16 07:54:12;;;;;;;3.83;2.65;;;;;;;53.77;5.58;99511.19;5093332;28;20028;-60
2021/06/16 07:56:41;;;;;;;5.82;2.40;;;;;;;53.72;4.96;99526.00;5098527;28;20044;-62
2021/06/16 07:59:07;;;;;;;2.58;2.40;;;;;;;52.65;5.33;99502.50;5102307;28;20240;-61
2021/06/16 08:01:33;;;;;;;3.58;2.10;;;;;;;51.40;5.87;99506.38;5106296;28;20132;-62
2021/06/16 08:03:59;;;;;;;7.55;2.38;;;;;;;49.67;7.10;99524.81;5095368;28;20101;-61
2021/06/16 08:06:25;;;;;;;3.45;2.03;;;;;;;48.06;7.92;99517.28;5108025;28;20102;-61
2021/06/16 08:08:50;;;;;;;2.38;2.17;;;;;;;46.96;8.41;99514.91;5100306;28;20034;-61
2021/06/16 08:11:16;;;;;;;3.20;2.20;;;;;;;46.66;8.82;99526.09;5100317;28;20059;-63
2021/06/16 08:13:42;;;;;;;3.15;2.20;;;;;;;45.61;9.54;99530.41;5106508;28;20438;-61
2021/06/16 08:16:07;;;;;;;2.53;1.75;;;;;;;44.92;9.94;99531.59;5094943;28;20463;-61
2021/06/16 08:18:33;;;;;;;2.15;1.95;;;;;;;44.72;10.61;99534.28;5106834;28;20546;-61
2021/06/16 08:20:59;;;;;;;3.17;2.05;;;;;;;44.88;10.58;99530.66;5100249;28;20095;-61
2021/06/16 08:23:25;;;;;;;4.55;2.10;;;;;;;44.48;10.53;99528.78;5099381;28;20483;-62
2021/06/16 08:25:51;;;;;;;3.35;1.85;;;;;;;42.30;12.42;99527.47;5108418;28;20372;-63
2021/06/16 08:28:16;;;;;;;4.25;1.90;;;;;;;39.95;13.88;99529.75;5095132;28;20031;-63
2021/06/16 08:30:42;;;;;;;4.18;2.28;;;;;;;37.70;16.09;99523.94;5104675;28;20039;-61
2021/06/16 08:33:07;;;;;;;7.15;1.83;;;;;;;35.65;18.00;99509.38;5101329;28;20054;-62
2021/06/16 08:35:33;;;;;;;5.13;2.28;;;;;;;34.35;19.82;99529.34;5097400;27;20036;-63
2021/06/16 08:37:58;;;;;;;6.10;2.00;;;;;;;32.99;21.46;99538.59;5107980;28;20035;-55
2021/06/16 08:40:24;;;;;;;3.53;2.05;;;;;;;31.85;22.96;99541.28;5095254;28;20449;-66
2021/06/16 08:42:49;;;;;;;5.45;1.90;;;;;;;31.14;24.39;99552.53;5103725;28;20054;-66
2021/06/16 08:45:17;;;;;;;4.32;2.00;;;;;;;30.21;25.30;99505.72;5093153;28;20039;-64
2021/06/16 08:47:46;;;;;;;4.90;2.00;;;;;;;30.07;26.42;99551.38;5095791;28;20096;-63
2021/06/16 08:50:13;;;;;;;6.45;1.92;;;;;;;29.89;26.52;99556.13;5108255;28;20035;-63
2021/06/16 08:52:38;;;;;;;5.85;2.20;;;;;;;29.88;26.39;99548.94;5097087;28;20495;-62
2021/06/16 08:55:07;;;;;;;4.95;2.10;;;;;;;30.16;25.75;99551.75;5100943;28;20036;-62
2021/06/16 08:57:33;;;;;;;4.53;2.30;;;;;;;30.33;25.32;99570.97;5104787;28;20402;-60
2021/06/16 08:59:59;;;;;;;4.43;2.08;;;;;;;30.14;26.15;99568.56;5094279;28;20143;-59
2021/06/16 09:02:25;;;;;;;5.75;2.40;;;;;;;29.94;26.48;99553.44;5111360;28;20487;-63
2021/06/16 09:04:52;;;;;;;3.67;2.08;;;;;;;30.00;26.24;99575.56;5103251;28;20035;-61
2021/06/16 09:07:23;;;;;;;5.78;2.30;;;;;;;29.92;25.76;99569.44;5102922;28;20028;-62
2021/06/16 09:10:05;;;;;;;6.85;2.10;;;;;;;29.61;26.21;99574.56;5092788;28;20028;-55
2021/06/16 09:12:33;;;;;;;4.60;1.83;;;;;;;29.03;26.49;99574.03;5090537;28;20039;-60
2021/06/16 09:14:58;;;;;;;6.72;2.08;;;;;;;28.94;27.21;99576.41;5093454;28;20035;-60
2021/06/16 09:17:24;;;;;;;3.47;2.13;;;;;;;28.31;27.38;99458.03;5102725;28;20398;-60
2021/06/16 09:19:53;;;;;;;3.25;1.83;;;;;;;29.40;26.85;99591.91;5107419;28;20443;-60
2021/06/16 09:22:27;;;;;;;4.13;2.20;;;;;;;29.80;25.53;99568.72;5097800;28;20410;-59
2021/06/16 09:24:54;;;;;;;4.80;1.58;;;;;;;29.92;24.96;99572.19;5098341;28;20030;-63
2021/06/16 09:27:38;;;;;;;5.25;1.83;;;;;;;30.00;25.21;99579.16;5096015;28;20043;-59
2021/06/16 09:30:15;;;;;;;3.25;1.63;;;;;;;29.72;25.87;99572.78;5102199;28;20537;-61
2021/06/16 09:32:43;;;;;;;3.00;1.90;;;;;;;29.54;25.95;99582.22;5096927;28;20083;-62
2021/06/16 09:35:22;;;;;;;2.90;2.22;;;;;;;29.43;25.93;99600.53;5105932;28;20027;-64
2021/06/16 09:37:50;;;;;;;6.13;1.95;;;;;;;29.28;26.03;99592.88;5101867;28;20036;-68
2021/06/16 09:40:37;;;;;;;5.72;2.45;;;;;;;29.32;25.57;99594.03;5097407;28;20122;-68
2021/06/16 09:43:04;;;;;;;5.93;2.20;;;;;;;29.01;25.80;99601.84;5102909;28;20032;-73
2021/06/16 09:45:31;;;;;;;4.53;2.25;;;;;;;28.67;26.12;99606.50;5095138;28;20066;-64
2021/06/16 09:47:56;;;;;;;2.63;1.75;;;;;;;28.24;26.23;99600.50;5091956;28;20491;-69
2021/06/16 09:50:24;;;;;;;4.50;1.70;;;;;;;27.98;26.79;99617.31;5093701;28;20027;-70
2021/06/16 09:52:51;;;;;;;7.30;1.77;;;;;;;27.78;26.93;99615.00;5102607;28;20035;-64
2021/06/16 09:55:29;;;;;;;3.60;1.85;;;;;;;27.75;27.46;99626.50;5101665;28;20047;-68
2021/06/16 09:58:02;;;;;;;3.70;1.80;;;;;;;27.57;27.47;99620.06;5091992;28;20032;-69
2021/06/16 10:00:49;;;;;;;5.28;1.70;;;;;;;27.47;28.00;99604.16;5103900;28;20088;-64
2021/06/16 10:03:22;;;;;;;4.50;1.70;;;;;;;27.14;27.56;99607.53;5098116;28;20172;-69
2021/06/16 10:06:08;;;;;;;11.20;2.25;;;;;;;27.08;27.83;99617.53;5095898;28;20023;-66
2021/06/16 10:08:36;;;;;;;7.35;2.05;;;;;;;26.99;28.45;99632.72;5073338;28;20028;-63
2021/06/16 10:11:05;;;;;;;6.25;1.70;;;;;;;27.00;26.92;99629.72;5098272;28;20047;-66
2021/06/16 10:13:31;;;;;;;3.33;1.50;;;;;;;26.97;27.07;99621.97;5094693;28;20052;-68
2021/06/16 10:15:58;;;;;;;4.65;1.50;;;;;;;27.00;27.27;99635.22;5106563;28;20095;-69
2021/06/16 10:18:26;;;;;;;3.83;1.65;;;;;;;26.44;27.12;99544.03;5093852;28;20043;-64
2021/06/16 10:20:52;;;;;;;5.18;1.50;;;;;;;26.74;26.96;99647.47;5106339;28;20039;-72
2021/06/16 10:23:18;;;;;;;3.70;1.60;;;;;;;26.30;27.51;99614.75;5097118;28;20158;-67
2021/06/16 10:25:45;;;;;;;4.20;1.70;;;;;;;26.33;27.90;99641.72;5103686;28;20506;-64
2021/06/16 10:28:15;;;;;;;5.60;1.80;;;;;;;26.36;27.97;99641.25;5093598;28;20032;-64
2021/06/16 10:30:43;;;;;;;4.85;1.60;;;;;;;26.51;26.70;99630.66;5094143;28;20036;-66
2021/06/16 10:33:30;;;;;;;4.50;1.67;;;;;;;26.73;26.49;99635.63;5104007;28;20027;-65
2021/06/16 10:36:28;;;;;;;1.70;1.40;;;;;;;26.92;26.21;99636.44;5097275;28;20031;-64
2021/06/16 10:38:56;;;;;;;4.88;1.65;;;;;;;26.95;25.86;99648.84;5096260;28;20122;-64
2021/06/16 10:41:47;;;;;;;4.63;1.45;;;;;;;27.06;25.40;99650.78;5096442;28;20039;-67
2021/06/16 10:44:26;;;;;;;1.77;1.33;;;;;;;26.96;24.63;99650.50;5104435;28;20035;-62
2021/06/16 10:47:08;;;;;;;2.95;1.20;;;;;;;26.61;24.35;99610.06;5096929;28;20034;-65
2021/06/16 10:49:39;;;;;;;2.83;1.05;;;;;;;26.74;24.50;99653.78;5094773;28;20453;-69
2021/06/16 10:52:06;;;;;;;5.45;1.20;;;;;;;26.55;24.24;99649.44;5096196;28;20069;-64
2021/06/16 10:54:33;;;;;;;2.95;1.05;;;;;;;26.59;24.79;99662.44;5097682;28;20026;-63
2021/06/16 10:57:06;;;;;;;2.47;1.02;;;;;;;26.56;24.30;99651.13;5094075;28;20052;-62
2021/06/16 10:59:44;;;;;;;2.05;0.73;;;;;;;26.48;24.23;99663.25;5102506;28;20115;-63
2021/06/16 11:02:38;;;;;;;3.90;1.13;;;;;;;26.33;24.02;99653.53;5089875;28;20454;-67
2021/06/16 11:05:28;;;;;;;4.13;1.40;;;;;;;26.47;24.19;99659.66;5092447;28;20515;-65
2021/06/16 11:07:54;;;;;;;3.47;1.23;;;;;;;26.25;23.99;99647.53;5098014;28;20032;-67
2021/06/16 11:10:20;;;;;;;1.70;1.33;;;;;;;26.25;24.32;99650.28;5092959;28;20079;-64
2021/06/16 11:12:49;;;;;;;6.07;1.00;;;;;;;26.21;24.50;99649.91;5100799;28;20098;-65
2021/06/16 11:15:24;;;;;;;5.25;1.20;;;;;;;26.31;24.96;99643.88;5099602;28;20093;-65
2021/06/16 11:18:01;;;;;;;6.40;1.40;;;;;;;26.39;24.90;99639.94;5092791;28;20036;-65
2021/06/16 11:20:40;;;;;;;4.97;1.17;;;;;;;26.34;24.69;99651.63;5094073;28;20118;-64
2021/06/16 11:23:18;;;;;;;5.25;1.10;;;;;;;26.31;24.89;99644.69;5098858;28;20028;-65
2021/06/16 11:25:44;;;;;;;2.85;1.25;;;;;;;26.27;25.00;99651.72;5104739;28;20043;-64
2021/06/16 11:28:18;;;;;;;1.50;1.30;;;;;;;26.31;24.80;99641.94;5092302;28;20089;-65
2021/06/16 11:30:55;;;;;;;8.30;1.30;;;;;;;26.34;24.91;99646.16;5104928;28;20070;-67
2021/06/16 11:33:26;;;;;;;3.60;1.13;;;;;;;26.25;25.40;99642.88;5098105;28;20027;-64
2021/06/16 11:35:52;;;;;;;5.57;1.35;;;;;;;26.20;25.25;99649.06;5104877;28;20046;-63
2021/06/16 11:38:18;;;;;;;3.53;1.00;;;;;;;26.08;24.77;99645.41;5094823;28;20891;-65
2021/06/16 11:41:02;;;;;;;2.20;1.13;;;;;;;26.08;24.66;99653.63;5105193;28;20130;-66